Time;durP1;ratioP1;P1;durP2;ratioP2;P2;SDS_P1;SDS_P2;PMS_P1;PMS_P2;Temp;Humidity;BMP_temperature;BMP_pressure;BME280_temperature;BME280_humidity;BME280_pressure;Samples;Min_cycle;Max_cycle;Signal;HPM_P1;HPM_P2
2023/04/21 00:00:11;;;;;;;28.67;18.73;;;6.20;99.90;;;9.32;58.03;97238.59;5051081;28;20041;-58
2023/04/21 00:02:38;;;;;;;25.57;18.13;;;6.20;99.90;;;9.29;57.86;97233.63;5058832;28;20037;-59
2023/04/21 00:05:09;;;;;;;26.60;17.97;;;6.10;99.90;;;9.26;58.16;97240.09;5061271;28;20043;-58
2023/04/21 00:07:38;;;;;;;24.83;16.87;;;6.10;99.90;;;9.26;58.31;97240.91;5062509;28;20441;-59
2023/04/21 00:10:10;;;;;;;28.33;17.93;;;6.10;99.90;;;9.25;58.41;97233.94;5059207;28;20049;-59
2023/04/21 00:12:38;;;;;;;26.23;16.93;;;6.20;99.90;;;9.25;58.31;97241.91;5058937;28;20112;-59
2023/04/21 00:15:06;;;;;;;23.80;16.50;;;6.20;99.90;;;9.29;58.27;97237.13;5059959;28;20051;-58
2023/04/21 00:17:34;;;;;;;24.67;14.83;;;6.20;99.90;;;9.31;58.24;97227.16;5062112;28;20047;-58
2023/04/21 00:20:03;;;;;;;24.43;15.57;;;6.20;99.90;;;9.28;57.97;97224.81;5059608;28;20041;-58
2023/04/21 00:22:31;;;;;;;20.30;14.83;;;6.20;99.90;;;9.28;58.08;97227.47;5058773;28;20049;-59
2023/04/21 00:24:58;;;;;;;23.33;16.03;;;6.10;99.90;;;9.29;58.04;97229.16;5060390;28;20387;-59
2023/04/21 00:27:26;;;;;;;22.80;16.17;;;6.20;99.90;;;9.30;57.97;97238.75;5060694;28;20040;-59
2023/04/21 00:29:53;;;;;;;26.07;15.57;;;6.20;99.90;;;9.32;58.25;97233.28;5062388;28;20498;-58
2023/04/21 00:32:21;;;;;;;21.50;14.40;;;6.20;99.90;;;9.31;57.79;97234.31;5061028;28;20052;-58
2023/04/21 00:34:50;;;;;;;23.53;15.20;;;6.20;99.90;;;9.30;57.86;97222.81;5061660;28;20475;-59
2023/04/21 00:37:17;;;;;;;24.50;15.27;;;6.10;99.90;;;9.28;57.77;97219.50;5064632;28;20059;-59
2023/04/21 00:39:45;;;;;;;22.33;13.77;;;6.20;99.90;;;9.28;58.12;97224.81;5063959;28;20526;-59
2023/04/21 00:42:16;;;;;;;21.60;14.27;;;6.20;99.90;;;9.29;58.02;97218.53;5061238;28;20044;-59
2023/04/21 00:44:43;;;;;;;23.07;15.90;;;6.20;99.90;;;9.30;57.85;97225.47;5060991;28;20493;-58
2023/04/21 00:47:11;;;;;;;23.27;14.67;;;6.20;99.90;;;9.27;57.82;97224.00;5052330;28;20045;-58
2023/04/21 00:49:39;;;;;;;23.23;14.63;;;6.10;99.90;;;9.25;57.40;97214.53;5042332;28;20056;-60
2023/04/21 00:52:07;;;;;;;20.30;14.23;;;6.00;99.90;;;9.22;57.83;97210.34;5064776;28;20045;-59
2023/04/21 00:54:35;;;;;;;19.20;14.00;;;6.00;99.90;;;9.21;57.87;97211.38;5063795;28;20051;-58
2023/04/21 00:57:03;;;;;;;20.13;14.40;;;6.00;99.90;;;9.23;58.02;97212.03;5062728;28;20053;-58
2023/04/21 00:59:31;;;;;;;20.53;14.53;;;6.10;99.90;;;9.26;57.96;97214.34;5062121;28;20048;-59
2023/04/21 01:01:58;;;;;;;19.57;14.27;;;6.10;99.90;;;9.27;57.60;97217.84;5044721;28;20056;-58
2023/04/21 01:04:28;;;;;;;20.20;13.67;;;6.10;99.90;;;9.26;57.59;97217.00;5065608;28;20394;-59
2023/04/21 01:06:57;;;;;;;22.10;15.73;;;6.10;99.90;;;9.25;57.66;97214.53;5062618;28;20041;-58
2023/04/21 01:09:26;;;;;;;19.67;14.27;;;6.10;99.90;;;9.25;57.67;97212.69;5060276;28;20409;-58
2023/04/21 01:12:09;;;;;;;22.67;14.00;;;6.10;99.90;;;9.25;57.77;97215.34;5061515;28;20414;-58
2023/04/21 01:14:39;;;;;;;17.87;13.03;;;6.10;99.90;;;9.26;57.49;97210.88;5072002;28;20446;-58
2023/04/21 01:17:07;;;;;;;21.33;13.50;;;6.10;99.90;;;9.22;57.57;97210.34;5060181;28;20053;-58
2023/04/21 01:19:40;;;;;;;19.30;13.93;;;6.00;99.90;;;9.18;57.56;97214.34;5061714;28;20049;-59
2023/04/21 01:22:12;;;;;;;17.87;11.97;;;6.00;99.90;;;9.19;57.45;97204.53;5064657;28;20253;-59
2023/04/21 01:24:46;;;;;;;17.70;11.90;;;6.00;99.90;;;9.15;57.32;97206.72;5063274;28;20318;-58
2023/04/21 01:27:17;;;;;;;17.65;11.75;;;6.00;99.90;;;9.16;57.34;97207.53;5053996;28;20528;-58
2023/04/21 01:29:50;;;;;;;17.30;12.03;;;5.90;99.90;;;9.11;57.51;97208.03;5061775;28;20041;-59
2023/04/21 01:32:22;;;;;;;18.33;12.80;;;5.90;99.90;;;9.09;57.34;97201.22;5063738;28;20062;-58
2023/04/21 01:34:53;;;;;;;14.97;10.33;;;5.80;99.90;;;9.02;57.31;97201.84;5064002;28;20055;-59
2023/04/21 01:37:24;;;;;;;19.07;13.07;;;5.70;99.90;;;9.00;57.16;97206.50;5060267;28;20048;-58
2023/04/21 01:39:55;;;;;;;16.03;11.97;;;5.70;99.90;;;8.94;57.18;97195.72;5060419;28;20061;-59
2023/04/21 01:42:25;;;;;;;17.37;11.83;;;5.60;99.90;;;8.92;57.28;97198.53;5062973;28;20048;-59
2023/04/21 01:44:53;;;;;;;15.73;11.57;;;5.60;99.90;;;8.91;57.06;97215.44;5069892;28;20044;-59
2023/04/21 01:47:23;;;;;;;17.50;12.27;;;5.60;99.90;;;8.88;56.91;97207.81;5051555;28;20041;-59
2023/04/21 01:49:51;;;;;;;18.87;12.70;;;5.60;99.90;;;8.80;57.23;97205.97;5060232;28;20045;-58
2023/04/21 01:52:20;;;;;;;19.13;13.93;;;5.50;99.90;;;8.78;57.62;97215.06;5046409;28;20044;-58
2023/04/21 01:54:48;;;;;;;20.27;12.60;;;5.50;99.90;;;8.79;57.60;97209.59;5045424;28;20048;-59
2023/04/21 01:57:16;;;;;;;15.60;10.80;;;5.60;99.90;;;8.79;57.40;97206.94;5059277;28;20041;-59
2023/04/21 01:59:44;;;;;;;17.73;11.70;;;5.60;99.90;;;8.78;57.59;97202.63;5059313;28;20105;-58
2023/04/21 02:02:12;;;;;;;20.47;12.10;;;5.60;99.90;;;8.78;57.54;97207.94;5059910;28;20049;-58
2023/04/21 02:04:39;;;;;;;17.90;12.23;;;5.60;99.90;;;8.78;57.59;97202.63;5061151;28;20510;-59
2023/04/21 02:07:07;;;;;;;21.40;13.27;;;5.70;99.90;;;8.80;57.52;97208.59;5062049;28;20044;-55
2023/04/21 02:09:35;;;;;;;17.50;12.03;;;5.80;99.90;;;8.81;57.61;97206.78;5062972;28;20048;-57
2023/04/21 02:12:03;;;;;;;17.17;11.60;;;5.80;99.90;;;8.80;57.41;97208.59;5060163;28;20717;-58
2023/04/21 02:14:31;;;;;;;18.07;12.80;;;5.70;99.90;;;8.78;57.36;97212.41;5058965;28;20414;-59
2023/04/21 02:16:59;;;;;;;21.00;13.60;;;5.70;99.90;;;8.75;57.15;97213.56;5059456;28;20060;-59
2023/04/21 02:19:27;;;;;;;17.90;13.87;;;5.60;99.90;;;8.73;57.25;97214.72;5062557;28;20115;-59
2023/04/21 02:21:55;;;;;;;20.53;12.77;;;5.50;99.90;;;8.67;57.06;97211.69;5061322;28;20048;-58
2023/04/21 02:24:23;;;;;;;20.13;13.80;;;5.40;99.90;;;8.63;57.05;97206.88;5058477;28;20041;-59
2023/04/21 02:26:52;;;;;;;20.57;13.77;;;5.30;99.90;;;8.60;57.10;97201.88;5040280;28;20554;-59
2023/04/21 02:29:20;;;;;;;20.70;12.87;;;5.30;99.90;;;8.55;57.18;97204.19;5062369;28;20517;-58
2023/04/21 02:31:48;;;;;;;20.70;13.27;;;5.20;99.90;;;8.50;57.06;97195.88;5063776;28;20051;-58
2023/04/21 02:34:31;;;;;;;18.70;12.85;;;5.20;99.90;;;8.48;57.12;97198.69;5058472;28;20067;-57
2023/04/21 02:36:59;;;;;;;18.40;13.37;;;5.20;99.90;;;8.46;57.23;97196.19;5061617;28;20045;-59
2023/04/21 02:39:27;;;;;;;20.27;13.30;;;5.20;99.90;;;8.47;57.16;97197.88;5063818;28;20036;-58
2023/04/21 02:41:55;;;;;;;19.13;12.47;;;5.20;99.90;;;8.45;57.14;97193.69;5061218;28;20043;-58
2023/04/21 02:44:22;;;;;;;19.47;13.67;;;5.20;99.90;;;8.43;57.16;97198.31;5067206;28;20052;-58
2023/04/21 02:46:50;;;;;;;18.93;13.03;;;5.20;99.90;;;8.39;57.17;97195.13;5057902;28;20052;-59
2023/04/21 02:49:17;;;;;;;20.47;13.53;;;5.20;99.90;;;8.34;56.92;97196.59;5061921;28;20047;-58
2023/04/21 02:51:45;;;;;;;18.87;12.57;;;5.00;99.90;;;8.27;57.01;97197.22;5060934;28;20055;-58
2023/04/21 02:54:13;;;;;;;19.53;12.77;;;4.90;99.90;;;8.22;57.07;97199.53;5058377;28;20421;-59
2023/04/21 02:56:41;;;;;;;22.70;12.80;;;4.90;99.90;;;8.21;57.35;97197.03;5059547;28;20414;-58
2023/04/21 02:59:10;;;;;;;20.37;14.13;;;4.90;99.90;;;8.19;57.52;97197.19;5062602;28;20068;-58
2023/04/21 03:01:39;;;;;;;21.40;14.20;;;4.90;99.90;;;8.21;57.26;97202.31;5062664;28;20044;-58
2023/04/21 03:04:08;;;;;;;20.00;13.27;;;4.90;99.90;;;8.20;57.25;97204.16;5058776;28;20071;-57
2023/04/21 03:06:37;;;;;;;20.47;13.37;;;4.90;99.90;;;8.18;57.67;97199.97;5059530;28;20041;-56
2023/04/21 03:09:05;;;;;;;20.47;13.50;;;4.90;99.90;;;8.16;57.62;97205.47;5061777;28;20060;-58
2023/04/21 03:11:33;;;;;;;23.10;13.13;;;4.90;99.90;;;8.16;57.28;97210.75;5063071;28;20386;-59
2023/04/21 03:14:00;;;;;;;22.20;13.20;;;4.90;99.90;;;8.17;57.43;97201.81;5061329;28;20478;-58
2023/04/21 03:16:28;;;;;;;18.93;13.37;;;4.90;99.90;;;8.16;57.17;97194.00;5058088;28;20051;-59
2023/04/21 03:18:56;;;;;;;19.77;13.37;;;4.90;99.90;;;8.17;57.47;97193.03;5058815;28;20053;-58
2023/04/21 03:21:23;;;;;;;21.30;13.93;;;4.90;99.90;;;8.17;57.46;97183.25;5062423;28;20055;-58
2023/04/21 03:23:52;;;;;;;23.07;13.23;;;4.90;99.90;;;8.16;57.22;97180.75;5062730;28;20049;-57
2023/04/21 03:26:20;;;;;;;29.73;14.93;;;4.80;99.90;;;8.07;57.21;97191.31;5058035;28;20418;-58
2023/04/21 03:28:48;;;;;;;20.23;12.60;;;4.70;99.90;;;8.03;56.99;97181.19;5059357;28;20044;-59
2023/04/21 03:31:15;;;;;;;21.33;14.07;;;4.60;99.90;;;7.95;57.59;97181.97;5061307;28;20497;-59
2023/04/21 03:33:43;;;;;;;21.77;13.83;;;4.50;99.90;;;7.95;57.00;97187.25;5060625;28;20049;-59
2023/04/21 03:36:10;;;;;;;24.70;13.90;;;4.60;99.90;;;7.94;57.34;97192.72;5058145;28;20051;-58
2023/04/21 03:38:38;;;;;;;22.27;14.00;;;4.50;99.90;;;7.96;57.70;97180.97;5057650;28;20292;-59
2023/04/21 03:41:06;;;;;;;23.20;13.83;;;4.60;99.90;;;7.99;57.33;97175.34;5059864;28;20422;-59
2023/04/21 03:43:35;;;;;;;21.20;12.97;;;4.60;99.90;;;7.97;57.58;97192.38;5060894;28;20044;-58
2023/04/21 03:46:03;;;;;;;21.17;13.73;;;4.60;99.90;;;7.93;57.62;97186.59;5058773;28;20056;-58
2023/04/21 03:48:30;;;;;;;22.07;13.90;;;4.60;99.90;;;7.88;57.51;97179.09;5059356;28;20045;-59
2023/04/21 03:50:58;;;;;;;20.63;12.90;;;4.50;99.90;;;7.92;57.79;97192.88;5056224;28;20422;-59
2023/04/21 03:53:26;;;;;;;20.50;12.47;;;4.60;99.90;;;7.89;57.63;97195.84;5062527;28;20048;-58
2023/04/21 03:55:53;;;;;;;22.33;13.40;;;4.50;99.90;;;7.88;57.43;97178.25;5061950;28;20044;-59
2023/04/21 03:58:21;;;;;;;20.63;13.20;;;4.50;99.90;;;7.91;57.52;97185.06;5059737;28;20401;-58
2023/04/21 04:00:48;;;;;;;19.33;12.50;;;4.50;99.90;;;7.91;57.77;97180.63;5059070;28;20052;-59
2023/04/21 04:03:16;;;;;;;20.33;12.33;;;4.60;99.90;;;7.89;57.76;97183.41;5062149;28;20041;-58
2023/04/21 04:05:44;;;;;;;18.77;11.93;;;4.60;99.90;;;7.89;57.76;97183.41;5062062;28;20048;-58
2023/04/21 04:08:12;;;;;;;19.13;11.90;;;4.50;99.90;;;7.90;57.55;97184.25;5059692;28;20055;-58
2023/04/21 04:10:40;;;;;;;19.77;12.73;;;4.50;99.90;;;7.91;57.66;97183.25;5059036;28;20044;-58
2023/04/21 04:13:07;;;;;;;20.50;11.47;;;4.50;99.90;;;7.89;57.39;97179.94;5059182;28;20049;-58
2023/04/21 04:15:35;;;;;;;20.77;11.27;;;4.50;99.90;;;7.87;57.25;97180.09;5061563;28;20048;-59
2023/04/21 04:18:03;;;;;;;19.97;12.10;;;4.50;99.90;;;7.91;57.70;97183.25;5059486;28;20057;-59
2023/04/21 04:20:30;;;;;;;19.60;12.20;;;4.60;99.90;;;7.96;57.27;97186.25;5058915;28;20517;-57
2023/04/21 04:22:58;;;;;;;21.30;12.80;;;4.60;99.90;;;7.99;56.97;97193.09;5058767;28;20052;-57
2023/04/21 04:25:25;;;;;;;17.90;12.80;;;4.70;99.90;;;8.00;57.29;97187.59;5061923;28;20430;-59
2023/04/21 04:27:54;;;;;;;19.47;12.87;;;4.70;99.90;;;7.95;57.40;97183.75;5062346;28;20044;-58
2023/04/21 04:30:22;;;;;;;20.30;12.20;;;4.60;99.90;;;7.94;57.24;97187.41;5051015;28;20037;-58
2023/04/21 04:32:51;;;;;;;16.53;11.37;;;4.50;99.90;;;7.96;57.42;97191.56;5058671;28;20049;-59
2023/04/21 04:35:19;;;;;;;16.57;11.20;;;4.60;99.90;;;8.00;57.73;97186.78;5061608;28;20047;-59
2023/04/21 04:37:47;;;;;;;16.80;11.23;;;4.70;99.90;;;8.03;57.63;97183.84;5062255;28;20537;-59
2023/04/21 04:40:15;;;;;;;16.83;11.47;;;4.70;99.90;;;8.05;57.63;97193.28;5059321;28;20421;-58
2023/04/21 04:42:45;;;;;;;17.87;11.37;;;4.80;99.90;;;8.09;57.68;97197.28;5058782;28;20037;-58
2023/04/21 04:45:13;;;;;;;18.23;11.10;;;4.80;99.90;;;8.14;57.64;97199.44;5060667;28;20052;-59
2023/04/21 04:47:41;;;;;;;16.97;11.00;;;4.90;99.90;;;8.18;57.50;97190.22;5060739;28;20433;-59
2023/04/21 04:50:08;;;;;;;20.20;12.03;;;4.90;99.90;;;8.21;57.46;97194.38;5059023;28;20041;-59
2023/04/21 04:52:36;;;;;;;19.07;12.70;;;4.90;99.90;;;8.22;57.26;97190.72;5058293;28;20071;-59
2023/04/21 04:55:04;;;;;;;18.17;11.50;;;5.00;99.90;;;8.24;57.51;97197.53;5058545;28;20049;-58
2023/04/21 04:57:32;;;;;;;18.27;12.60;;;4.90;99.90;;;8.26;57.71;97202.69;5061820;28;20048;-59
2023/04/21 04:59:59;;;;;;;19.10;12.60;;;5.00;99.90;;;8.29;57.61;97211.16;5061398;28;20552;-59
2023/04/21 05:02:27;;;;;;;17.93;12.43;;;5.00;99.90;;;8.29;57.52;97212.97;5058450;28;20037;-59
2023/04/21 05:04:55;;;;;;;17.90;11.70;;;5.00;99.90;;;8.32;57.68;97211.81;5057802;28;20052;-59
2023/04/21 05:07:22;;;;;;;16.23;11.70;;;5.00;99.90;;;8.36;57.67;97214.00;5049031;28;20052;-58
2023/04/21 05:09:50;;;;;;;17.47;11.60;;;5.10;99.90;;;8.41;57.53;97211.75;5058391;28;20041;-59
2023/04/21 05:12:17;;;;;;;17.33;10.60;;;5.20;99.90;;;8.47;57.36;97218.22;5061067;28;20048;-59
2023/04/21 05:14:45;;;;;;;16.80;11.10;;;5.30;99.90;;;8.49;57.49;97218.91;5062427;28;20040;-59
2023/04/21 05:17:12;;;;;;;17.67;10.90;;;5.30;99.90;;;8.52;57.45;97218.59;5062924;28;20062;-60
2023/04/21 05:19:40;;;;;;;15.40;9.03;;;5.30;99.90;;;8.55;57.40;97214.78;5061774;28;20060;-60
2023/04/21 05:22:07;;;;;;;14.50;10.27;;;5.40;99.90;;;8.59;57.29;97226.78;5063044;28;20049;-60
2023/04/21 05:24:35;;;;;;;14.60;8.97;;;5.50;99.90;;;8.57;57.20;97229.56;5065143;28;20131;-60
2023/04/21 05:27:02;;;;;;;13.87;9.40;;;5.50;99.90;;;8.61;57.34;97241.53;5064188;28;20048;-60
2023/04/21 05:29:30;;;;;;;16.47;10.10;;;5.50;99.90;;;8.65;57.23;97234.09;5061480;28;20045;-60
2023/04/21 05:31:57;;;;;;;17.87;11.47;;;5.50;99.90;;;8.69;57.08;97237.25;5061717;28;20052;-60
2023/04/21 05:34:25;;;;;;;17.53;11.90;;;5.50;99.90;;;8.70;56.86;97237.09;5049672;28;20040;-61
2023/04/21 05:36:53;;;;;;;16.33;12.50;;;5.50;99.90;;;8.71;56.81;97249.38;5065188;28;20107;-60
2023/04/21 05:39:20;;;;;;;18.23;11.80;;;5.50;99.90;;;8.67;57.12;97254.16;5061415;28;20371;-60
2023/04/21 05:41:48;;;;;;;20.97;12.03;;;5.40;99.90;;;8.68;57.05;97254.97;5060826;28;20057;-60
2023/04/21 05:44:16;;;;;;;18.73;12.60;;;5.40;99.90;;;8.66;57.25;97239.22;5063654;28;20048;-61
2023/04/21 05:46:44;;;;;;;18.93;12.73;;;5.30;99.90;;;8.74;57.28;97233.13;5064724;28;20040;-61
2023/04/21 05:49:12;;;;;;;18.60;12.13;;;5.50;99.90;;;8.83;57.14;97231.34;5063352;28;20301;-59
2023/04/21 05:51:40;;;;;;;17.90;12.13;;;5.60;99.90;;;8.92;57.37;97238.34;5061304;28;20414;-61
2023/04/21 05:54:07;;;;;;;18.53;12.17;;;5.70;99.90;;;8.99;57.47;97238.53;5060224;28;20056;-61
2023/04/21 05:56:35;;;;;;;20.03;12.43;;;5.80;99.90;;;9.06;57.43;97239.56;5064474;28;20052;-60
2023/04/21 05:59:02;;;;;;;18.03;11.40;;;6.00;99.90;;;9.11;57.43;97245.22;5064324;28;20052;-60
2023/04/21 06:01:30;;;;;;;19.43;12.77;;;6.10;99.90;;;9.17;57.43;97241.06;5061007;28;20072;-60
2023/04/21 06:03:57;;;;;;;19.30;12.83;;;6.10;99.90;;;9.23;57.29;97240.44;5061029;28;20426;-60
2023/04/21 06:06:26;;;;;;;17.93;13.53;;;6.20;99.90;;;9.25;57.04;97236.59;5039120;28;20041;-60
2023/04/21 06:08:54;;;;;;;19.80;12.33;;;6.20;99.90;;;9.27;57.06;97231.97;5056753;28;20045;-60
2023/04/21 06:11:22;;;;;;;22.03;13.27;;;6.10;99.90;;;9.25;56.84;97233.94;5063683;28;20045;-60
2023/04/21 06:13:52;;;;;;;21.13;13.53;;;6.10;99.90;;;9.25;56.98;97241.09;5062107;28;20048;-60
2023/04/21 06:16:20;;;;;;;18.57;12.70;;;6.00;99.90;;;9.25;56.75;97238.44;5055675;28;20239;-59
2023/04/21 06:18:47;;;;;;;20.27;12.97;;;6.00;99.90;;;9.28;56.60;97232.78;5064272;28;20055;-59
2023/04/21 06:21:15;;;;;;;20.03;12.50;;;6.00;99.90;;;9.31;56.76;97232.47;5062201;28;20048;-60
2023/04/21 06:23:42;;;;;;;23.53;13.67;;;6.00;99.90;;;9.33;56.62;97235.78;5060513;28;20045;-60
2023/04/21 06:26:10;;;;;;;22.67;12.97;;;6.10;99.90;;;9.37;56.72;97234.47;5061361;28;20049;-60
2023/04/21 06:28:38;;;;;;;19.90;13.40;;;6.10;99.90;;;9.40;56.94;97234.16;5064134;28;20048;-60
2023/04/21 06:31:06;;;;;;;26.87;14.40;;;6.10;99.90;;;9.43;56.98;97228.50;5063264;28;20497;-60
2023/04/21 06:33:35;;;;;;;24.57;15.10;;;6.10;99.90;;;9.48;56.81;97224.50;5060267;28;20055;-59
2023/04/21 06:36:03;;;;;;;22.87;13.93;;;6.10;99.90;;;9.56;56.97;97229.84;5060192;28;20431;-60
2023/04/21 06:38:31;;;;;;;22.93;14.77;;;6.20;99.90;;;9.62;57.15;97227.34;5063958;28;20048;-60
2023/04/21 06:40:59;;;;;;;23.90;15.10;;;6.30;99.90;;;9.70;56.88;97236.34;5063239;28;20053;-60
2023/04/21 06:43:26;;;;;;;24.50;14.57;;;6.40;99.90;;;9.77;57.03;97237.31;5063522;28;20506;-60
2023/04/21 06:45:54;;;;;;;21.90;14.10;;;6.50;99.90;;;9.82;57.10;97232.34;5063253;28;20036;-59
2023/04/21 06:48:23;;;;;;;24.03;14.83;;;6.60;99.90;;;9.91;57.10;97236.66;5060856;28;20047;-59
2023/04/21 06:50:51;;;;;;;24.17;14.50;;;6.70;99.90;;;9.98;57.12;97239.47;5056941;28;20041;-58
2023/04/21 06:53:20;;;;;;;22.27;14.87;;;6.80;99.90;;;10.06;57.38;97234.16;5061210;28;20502;-60
2023/04/21 06:55:48;;;;;;;26.13;14.33;;;6.90;99.90;;;10.14;57.04;97233.31;5063057;28;20044;-58
2023/04/21 06:58:15;;;;;;;29.70;14.70;;;7.00;99.90;;;10.20;57.30;97225.50;5061729;28;20056;-60
2023/04/21 07:00:45;;;;;;;23.03;15.57;;;7.10;99.90;;;10.26;56.94;97224.00;5059760;28;20056;-60
2023/04/21 07:03:13;;;;;;;22.53;14.80;;;7.20;99.90;;;10.33;56.95;97225.03;5060027;28;20045;-60
2023/04/21 07:05:40;;;;;;;24.07;15.90;;;7.20;99.90;;;10.39;56.90;97223.47;5061324;28;20064;-60
2023/04/21 07:08:08;;;;;;;21.93;14.97;;;7.30;99.90;;;10.49;57.00;97221.47;5062620;28;20053;-60
2023/04/21 07:10:35;;;;;;;24.17;14.93;;;7.50;99.90;;;10.64;56.93;97221.56;5059841;28;20056;-60
2023/04/21 07:13:03;;;;;;;27.87;17.43;;;7.60;99.90;;;10.78;56.98;97222.72;5059642;28;20056;-60
2023/04/21 07:15:31;;;;;;;24.67;15.00;;;7.80;99.90;;;10.89;57.50;97219.66;5051283;28;20055;-60
2023/04/21 07:17:59;;;;;;;23.63;15.30;;;7.90;99.90;;;10.98;57.12;97215.13;5059847;28;20048;-60
2023/04/21 07:20:26;;;;;;;21.93;13.97;;;8.00;99.90;;;11.07;57.21;97222.06;5062538;28;20414;-60
2023/04/21 07:22:58;;;;;;;25.33;15.00;;;8.00;99.90;;;11.12;57.03;97226.88;5036893;28;20494;-60
2023/04/21 07:25:31;;;;;;;19.83;13.23;;;8.00;99.90;;;11.12;56.66;97214.38;5025955;28;20513;-60
2023/04/21 07:27:58;;;;;;;21.27;13.63;;;8.00;99.90;;;11.09;56.53;97228.06;5040568;28;20048;-61
2023/04/21 07:30:26;;;;;;;24.13;15.07;;;7.90;99.90;;;11.03;56.38;97218.94;5034720;28;20053;-61
2023/04/21 07:32:54;;;;;;;20.03;13.73;;;7.90;99.90;;;10.95;56.71;97218.97;5037901;28;20053;-60
2023/04/21 07:35:22;;;;;;;20.43;14.00;;;7.80;99.90;;;10.90;56.35;97217.84;5035416;28;20052;-61
2023/04/21 07:37:50;;;;;;;24.47;15.47;;;7.70;99.90;;;10.85;56.38;97213.00;5033787;28;20053;-60
2023/04/21 07:40:17;;;;;;;25.80;14.80;;;7.70;99.90;;;10.80;56.76;97213.53;5030216;28;20045;-61
2023/04/21 07:42:45;;;;;;;22.27;14.07;;;7.60;99.90;;;10.76;56.53;97219.38;5037795;28;20049;-61
2023/04/21 07:45:13;;;;;;;21.73;14.60;;;7.60;99.90;;;10.73;56.76;97207.25;5036952;28;20045;-61
2023/04/21 07:47:40;;;;;;;21.60;14.80;;;7.60;99.90;;;10.71;56.66;97211.09;5038028;28;20040;-61
2023/04/21 07:50:09;;;;;;;21.33;13.27;;;7.60;99.90;;;10.69;56.83;97210.44;5038322;28;20056;-61
2023/04/21 07:52:36;;;;;;;22.60;15.33;;;7.50;99.90;;;10.69;56.91;97213.09;5030240;28;20048;-61
2023/04/21 07:55:05;;;;;;;22.57;14.40;;;7.50;99.90;;;10.67;57.04;97215.91;5033489;28;20041;-61
2023/04/21 07:57:37;;;;;;;24.20;16.87;;;7.50;99.90;;;10.67;56.75;97210.59;5035669;28;20056;-59
2023/04/21 08:00:06;;;;;;;24.33;15.13;;;7.50;99.90;;;10.68;56.87;97206.09;5037979;28;20072;-60
2023/04/21 08:02:38;;;;;;;;;;;7.60;99.90;;;10.74;56.62;97208.06;5037733;28;20513;-60
2023/04/21 08:05:06;;;;;;;20.73;12.80;;;7.60;99.90;;;10.73;56.62;97201.09;5037408;28;19929;-60
2023/04/21 08:07:34;;;;;;;24.20;15.70;;;7.50;99.90;;;10.70;56.69;97196.94;5033950;28;20051;-60
2023/04/21 08:10:03;;;;;;;22.37;13.37;;;7.50;99.90;;;10.71;56.59;97208.44;5054148;28;20056;-60
2023/04/21 08:12:30;;;;;;;20.33;12.80;;;7.50;99.90;;;10.71;56.75;97209.25;5062341;28;20417;-59
2023/04/21 08:14:58;;;;;;;21.63;14.43;;;7.60;99.90;;;10.72;56.74;97204.75;5061893;28;20414;-60
2023/04/21 08:17:25;;;;;;;22.83;15.57;;;7.60;99.90;;;10.75;56.79;97194.56;5059577;28;20057;-60
2023/04/21 08:19:53;;;;;;;25.43;15.53;;;7.70;99.90;;;10.80;57.11;97194.06;5057161;28;20052;-60
2023/04/21 08:22:21;;;;;;;21.77;14.60;;;7.70;99.90;;;10.85;56.95;97197.03;5060901;28;20056;-60
2023/04/21 08:24:49;;;;;;;20.27;14.63;;;7.70;99.90;;;10.93;57.45;97196.97;5062135;28;20449;-60
2023/04/21 08:27:16;;;;;;;18.17;13.30;;;7.90;99.90;;;10.99;57.09;97195.47;5060594;28;20036;-60
2023/04/21 08:29:44;;;;;;;18.43;11.53;;;8.00;99.90;;;11.07;57.35;97191.91;5057551;28;20045;-60
2023/04/21 08:32:11;;;;;;;15.63;10.23;;;8.00;99.90;;;11.13;57.05;97184.06;5059748;28;20426;-60
2023/04/21 08:34:39;;;;;;;15.70;10.90;;;8.10;99.90;;;11.20;56.54;97189.50;5060949;28;20063;-60
2023/04/21 08:37:07;;;;;;;13.57;9.53;;;8.30;99.90;;;11.26;57.48;97180.81;5060517;28;20044;-60
2023/04/21 08:39:35;;;;;;;15.27;10.77;;;8.40;99.90;;;11.32;57.10;97192.59;5058749;28;20506;-60
2023/04/21 08:42:03;;;;;;;15.53;10.07;;;8.50;99.90;;;11.36;57.34;97181.44;5058717;28;20462;-60
2023/04/21 08:44:31;;;;;;;17.07;11.60;;;8.50;99.90;;;11.44;57.14;97185.88;5061619;28;20037;-59
2023/04/21 08:47:00;;;;;;;17.43;11.90;;;8.50;99.90;;;11.49;57.14;97182.66;5061450;28;20048;-59
2023/04/21 08:49:30;;;;;;;18.77;10.93;;;8.60;99.90;;;11.54;57.42;97180.31;5058203;28;20041;-59
2023/04/21 08:51:59;;;;;;;17.93;11.27;;;8.70;99.90;;;11.60;57.42;97182.25;5062244;28;20501;-59
2023/04/21 08:54:27;;;;;;;16.97;11.27;;;8.80;99.90;;;11.64;57.74;97183.53;5064526;28;20044;-59
2023/04/21 08:56:57;;;;;;;14.33;10.40;;;8.80;99.90;;;11.71;57.68;97188.97;5065524;28;20071;-60
2023/04/21 08:59:38;;;;;;;16.77;10.67;;;8.90;99.90;;;11.80;57.50;97180.72;5055225;28;20074;-60
2023/04/21 09:02:14;;;;;;;17.43;10.87;;;9.00;99.90;;;11.83;57.68;97185.72;5062185;28;20045;-60
2023/04/21 09:04:45;;;;;;;15.00;10.03;;;9.10;99.90;;;11.90;57.34;97185.00;5065309;28;20055;-60
2023/04/21 09:07:38;;;;;;;15.00;10.87;;;9.10;99.90;;;11.97;57.44;97183.28;5064098;28;20059;-60
2023/04/21 09:10:06;;;;;;;14.87;9.13;;;9.20;99.90;;;12.06;57.09;97190.22;5061510;28;20041;-60
2023/04/21 09:12:34;;;;;;;14.67;9.07;;;9.30;99.90;;;12.11;57.17;97187.81;5054171;28;20049;-60
2023/04/21 09:15:08;;;;;;;13.27;8.87;;;9.30;99.90;;;12.18;57.06;97182.59;5061548;28;20045;-60
2023/04/21 09:17:37;;;;;;;12.17;8.43;;;9.40;99.90;;;12.27;57.08;97183.31;5054475;28;20045;-60
2023/04/21 09:20:20;;;;;;;15.30;9.50;;;9.50;99.90;;;12.34;57.19;97187.75;5062224;28;20049;-60
2023/04/21 09:22:50;;;;;;;13.43;9.57;;;9.50;99.90;;;12.39;56.90;97187.22;5056294;28;20053;-60
2023/04/21 09:25:21;;;;;;;13.00;8.83;;;9.60;99.90;;;12.43;56.77;97180.50;5062953;28;20056;-60
2023/04/21 09:27:49;;;;;;;17.30;10.33;;;9.70;99.90;;;12.46;57.14;97173.94;5065312;28;20048;-60
2023/04/21 09:30:19;;;;;;;13.70;9.03;;;9.70;99.90;;;12.53;57.03;97167.69;5063638;28;20048;-60
2023/04/21 09:32:47;;;;;;;14.77;10.53;;;9.80;99.90;;;12.59;56.76;97172.28;5061951;28;20479;-60
2023/04/21 09:35:14;;;;;;;12.53;8.00;;;9.80;99.90;;;12.65;56.77;97172.56;5060889;28;20064;-60
2023/04/21 09:37:43;;;;;;;11.97;8.17;;;9.90;99.90;;;12.70;56.88;97170.16;5065025;28;20055;-60
2023/04/21 09:40:16;;;;;;;12.07;8.13;;;9.90;99.90;;;12.76;56.58;97170.25;5064191;28;20052;-60
2023/04/21 09:42:44;;;;;;;12.23;9.18;;;10.00;99.90;;;12.80;56.79;97173.38;5061468;28;20072;-60
2023/04/21 09:45:16;;;;;;;12.67;9.10;;;10.00;99.90;;;12.88;56.69;97177.78;5061802;28;20049;-60
2023/04/21 09:48:07;;;;;;;11.77;8.00;;;10.10;99.90;;;12.95;56.74;97176.00;5065137;28;20494;-59
2023/04/21 09:50:35;;;;;;;11.10;8.60;;;10.10;99.90;;;12.98;56.23;97173.78;5052667;28;20041;-60
2023/04/21 09:53:15;;;;;;;12.60;8.33;;;10.20;99.90;;;13.04;56.33;97171.38;5057051;28;20073;-60
2023/04/21 09:55:48;;;;;;;10.93;8.27;;;10.20;99.90;;;13.06;55.93;97161.31;5064710;28;20051;-60
2023/04/21 09:58:23;;;;;;;11.20;8.30;;;10.30;99.90;;;13.11;56.14;97159.75;5063207;28;20513;-60
2023/04/21 10:00:53;;;;;;;11.87;8.73;;;10.40;99.90;;;13.15;56.03;97161.03;5060899;28;20051;-46
2023/04/21 10:03:25;;;;;;;13.63;8.73;;;10.40;99.90;;;13.22;55.79;97168.28;5063411;28;20071;-46
2023/04/21 10:05:53;;;;;;;13.80;8.70;;;10.40;99.90;;;13.25;56.08;97163.38;5064306;28;20041;-46
2023/04/21 10:08:21;;;;;;;11.20;8.20;;;10.50;99.90;;;13.31;55.85;97168.00;5062768;28;20045;-46
2023/04/21 10:10:51;;;;;;;12.57;8.60;;;10.60;99.90;;;13.38;55.72;97160.06;5061214;28;20052;-45
2023/04/21 10:13:20;;;;;;;11.37;8.37;;;10.60;99.90;;;13.42;56.15;97161.34;5061617;28;20041;-46
2023/04/21 10:15:48;;;;;;;12.43;8.40;;;10.70;99.90;;;13.47;56.13;97158.06;5062870;28;20544;-44
2023/04/21 10:18:21;;;;;;;13.43;8.87;;;10.70;99.90;;;13.53;55.82;97147.44;5062705;28;20048;-48
2023/04/21 10:20:56;;;;;;;;;;;10.80;99.90;;;13.66;55.78;97141.38;5061411;28;20056;-45
2023/04/21 10:23:45;;;;;;;12.63;7.73;;;10.80;99.90;;;13.68;55.53;97143.88;5063041;28;19921;-47